| time (UTC) | temp C | wind direction | speed KPH | gust KPH | rain 1hr cm | rain 24hr cm | rain mn cm | humidity % | barometer mb |
| 20260509091652 | 21 | 35 | 0.0 | 0.0 | 0.00 | 0.00 | 0.00 | 86 | 1007.0 |
| 20260509091148 | 21 | 339 | 0.0 | 0.0 | 0.00 | 0.00 | 0.00 | 86 | 1006.8 |
| 20260509090646 | 21 | 298 | 0.0 | 0.0 | 0.00 | 0.00 | 0.00 | 86 | 1006.8 |
| 20260509090143 | 21 | 321 | 0.0 | 0.0 | 0.00 | 0.00 | 0.00 | 86 | 1006.8 |
| 20260509085641 | 21 | 315 | 0.0 | 0.0 | 0.00 | 0.00 | 0.00 | 86 | 1006.7 |
| 20260509085136 | 21 | 341 | 0.0 | 0.0 | 0.00 | 0.00 | 0.00 | 87 | 1006.5 |
| 20260509084634 | 21 | 312 | 0.0 | 1.6 | 0.00 | 0.00 | 0.00 | 87 | 1006.4 |
| 20260509084131 | 21 | 304 | 0.0 | 0.0 | 0.00 | 0.00 | 0.00 | 86 | 1005.9 |
| 20260509083628 | 21 | 255 | 1.6 | 1.6 | 0.00 | 0.00 | 0.00 | 86 | 1005.3 |
| 20260509083125 | 21 | 161 | 3.2 | 4.8 | 0.00 | 0.00 | 0.00 | 86 | 1005.5 |
| 20260509082622 | 21 | 249 | 3.2 | 4.8 | 0.00 | 0.00 | 0.00 | 86 | 1005.3 |
| 20260509082119 | 21 | 295 | 3.2 | 3.2 | 0.00 | 0.00 | 0.00 | 86 | 1005.6 |
| 20260509081616 | 21 | 210 | 6.4 | 9.7 | 0.00 | 0.00 | 0.00 | 86 | 1005.8 |
| 20260509081113 | 21 | 197 | 3.2 | 4.8 | 0.00 | 0.00 | 0.00 | 86 | 1006.0 |
| 20260509080611 | 21 | 267 | 3.2 | 3.2 | 0.00 | 0.00 | 0.00 | 86 | 1005.9 |
| 20260509080109 | 21 | 222 | 9.7 | 16.1 | 0.00 | 0.00 | 0.00 | 86 | 1006.1 |
| 20260509075606 | 21 | 187 | 4.8 | 9.7 | 0.00 | 0.00 | 0.00 | 86 | 1006.3 |
| 20260509075104 | 21 | 199 | 1.6 | 3.2 | 0.00 | 0.00 | 0.00 | 86 | 1006.8 |
| 20260509074601 | 21 | 244 | 1.6 | 1.6 | 0.00 | 0.00 | 0.00 | 86 | 1007.0 |
| 20260509074057 | 21 | 294 | 3.2 | 4.8 | 0.00 | 0.00 | 0.00 | 87 | 1007.2 |
| 20260509073554 | 21 | 192 | 3.2 | 4.8 | 0.00 | 0.00 | 0.00 | 87 | 1007.2 |
| 20260509073050 | 21 | 205 | 1.6 | 1.6 | 0.00 | 0.00 | 0.00 | 87 | 1007.4 |
| 20260509072547 | 21 | 213 | 1.6 | 3.2 | 0.00 | 0.00 | 0.00 | 87 | 1007.8 |
| 20260509072044 | 21 | 186 | 1.6 | 3.2 | 0.00 | 0.00 | 0.00 | 87 | 1007.9 |
| 20260509071540 | 21 | 244 | 1.6 | 1.6 | 0.00 | 0.00 | 0.00 | 87 | 1008.1 |
| 20260509071038 | 21 | 166 | 3.2 | 4.8 | 0.00 | 0.00 | 0.00 | 86 | 1008.2 |
| 20260509070535 | 21 | 178 | 3.2 | 4.8 | 0.00 | 0.00 | 0.00 | 86 | 1008.2 |
| 20260509070031 | 21 | 281 | 0.0 | 1.6 | 0.00 | 0.00 | 0.00 | 86 | 1008.3 |
| 20260509065526 | 21 | 225 | 1.6 | 1.6 | 0.00 | 0.00 | 0.00 | 86 | 1008.5 |
| 20260509065023 | 21 | 258 | 0.0 | 1.6 | 0.00 | 0.00 | 0.00 | 86 | 1008.5 |
| 20260509064521 | 21 | 305 | 0.0 | 0.0 | 0.00 | 0.00 | 0.00 | 86 | 1008.4 |
| 20260509064019 | 21 | 249 | 0.0 | 0.0 | 0.00 | 0.00 | 0.00 | 86 | 1008.6 |
| 20260509063514 | 21 | 9 | 0.0 | 0.0 | 0.00 | 0.00 | 0.00 | 86 | 1008.7 |
| 20260509063011 | 21 | 306 | 1.6 | 3.2 | 0.00 | 0.00 | 0.00 | 86 | 1008.7 |
| 20260509062509 | 21 | 317 | 0.0 | 0.0 | 0.00 | 0.00 | 0.00 | 85 | 1008.6 |
| 20260509062006 | 21 | 270 | 1.6 | 3.2 | 0.00 | 0.00 | 0.00 | 85 | 1008.3 |
| 20260509061503 | 21 | 246 | 0.0 | 1.6 | 0.00 | 0.00 | 0.00 | 85 | 1008.0 |
| 20260509061001 | 21 | 256 | 0.0 | 1.6 | 0.00 | 0.00 | 0.00 | 84 | 1008.4 |
| 20260509060458 | 21 | 264 | 0.0 | 1.6 | 0.00 | 0.00 | 0.00 | 84 | 1008.3 |
| 20260509055953 | 21 | 285 | 0.0 | 0.0 | 0.00 | 0.00 | 0.00 | 84 | 1008.0 |
| 20260509055448 | 21 | 265 | 0.0 | 0.0 | 0.00 | 0.00 | 0.00 | 83 | 1008.4 |
| 20260509054945 | 21 | 240 | 1.6 | 1.6 | 0.00 | 0.00 | 0.00 | 83 | 1008.0 |
| 20260509054442 | 21 | 260 | 0.0 | 1.6 | 0.00 | 0.00 | 0.00 | 82 | 1008.2 |
| 20260509053940 | 21 | 225 | 1.6 | 1.6 | 0.00 | 0.00 | 0.00 | 82 | 1008.2 |
| 20260509053438 | 21 | 254 | 0.0 | 0.0 | 0.00 | 0.00 | 0.00 | 82 | 1008.6 |
| 20260509052935 | 21 | 272 | 0.0 | 0.0 | 0.00 | 0.00 | 0.00 | 81 | 1008.8 |
| 20260509052432 | 22 | 266 | 0.0 | 0.0 | 0.00 | 0.00 | 0.00 | 81 | 1009.2 |
| 20260509051930 | 22 | 349 | 0.0 | 0.0 | 0.00 | 0.00 | 0.00 | 80 | 1009.0 |
| 20260509051428 | 22 | 312 | 0.0 | 0.0 | 0.00 | 0.00 | 0.00 | 79 | 1009.1 |
| 20260509050924 | 22 | 333 | 0.0 | 0.0 | 0.00 | 0.00 | 0.00 | 78 | 1009.3 |
| 20260509050421 | 22 | 330 | 0.0 | 0.0 | 0.00 | 0.00 | 0.00 | 78 | 1009.6 |
| 20260509045918 | 22 | 307 | 0.0 | 0.0 | 0.00 | 0.66 | 0.66 | 79 | 1009.8 |
| 20260509045415 | 22 | 337 | 0.0 | 0.0 | 0.00 | 0.66 | 0.66 | 79 | 1010.2 |
| 20260509044912 | 22 | 357 | 0.0 | 1.6 | 0.00 | 0.66 | 0.66 | 80 | 1009.9 |
| 20260509044410 | 22 | 304 | 0.0 | 0.0 | 0.00 | 0.66 | 0.66 | 78 | 1009.1 |
| 20260509043906 | 22 | 296 | 0.0 | 0.0 | 0.00 | 0.66 | 0.66 | 78 | 1008.9 |
| 20260509043402 | 22 | 319 | 0.0 | 0.0 | 0.00 | 0.66 | 0.66 | 77 | 1008.5 |
| 20260509042858 | 22 | 250 | 1.6 | 1.6 | 0.00 | 0.66 | 0.66 | 77 | 1008.2 |
| 20260509042355 | 22 | 242 | 1.6 | 3.2 | 0.00 | 0.66 | 0.66 | 77 | 1008.2 |
| 20260509041851 | 22 | 215 | 6.4 | 9.7 | 0.00 | 0.66 | 0.66 | 76 | 1008.0 |
| 20260509041348 | 22 | 210 | 0.0 | 0.0 | 0.00 | 0.66 | 0.66 | 76 | 1008.0 |
| 20260509040847 | 22 | 247 | 0.0 | 0.0 | 0.00 | 0.66 | 0.66 | 76 | 1008.3 |
| 20260509040344 | 22 | 221 | 0.0 | 0.0 | 0.00 | 0.66 | 0.66 | 76 | 1008.5 |
| 20260509035841 | 22 | 243 | 0.0 | 0.0 | 0.00 | 0.66 | 0.66 | 76 | 1008.5 |
| 20260509035338 | 22 | 261 | 0.0 | 0.0 | 0.00 | 0.66 | 0.66 | 75 | 1008.3 |
| 20260509034834 | 22 | 239 | 1.6 | 1.6 | 0.00 | 0.66 | 0.66 | 75 | 1008.0 |
| 20260509034332 | 22 | 253 | 1.6 | 1.6 | 0.00 | 0.66 | 0.66 | 75 | 1007.8 |
| 20260509033828 | 22 | 223 | 4.8 | 4.8 | 0.00 | 0.66 | 0.66 | 75 | 1007.8 |
| 20260509033326 | 23 | 212 | 3.2 | 3.2 | 0.00 | 0.66 | 0.66 | 74 | 1007.6 |
| 20260509032822 | 23 | 185 | 9.7 | 11.3 | 0.00 | 0.66 | 0.66 | 74 | 1007.7 |
| 20260509032320 | 23 | 214 | 1.6 | 1.6 | 0.00 | 0.66 | 0.66 | 73 | 1008.6 |
| 20260509031818 | 23 | 276 | 0.0 | 0.0 | 0.00 | 0.66 | 0.66 | 74 | 1008.9 |
| 20260509031315 | 23 | 320 | 0.0 | 0.0 | 0.00 | 0.66 | 0.66 | 74 | 1008.9 |
| 20260509030812 | 23 | 338 | 0.0 | 0.0 | 0.00 | 0.66 | 0.66 | 74 | 1008.9 |
| 20260509030310 | 23 | 303 | 0.0 | 0.0 | 0.00 | 0.66 | 0.66 | 74 | 1008.9 |
| 20260509025806 | 23 | 315 | 0.0 | 0.0 | 0.00 | 0.66 | 0.66 | 74 | 1008.7 |
| 20260509025306 | 22 | 272 | 0.0 | 0.0 | 0.00 | 0.66 | 0.66 | 74 | 1008.5 |
| 20260509024758 | 22 | 291 | 0.0 | 0.0 | 0.00 | 0.66 | 0.66 | 74 | 1008.3 |
| 20260509024254 | 22 | 230 | 0.0 | 0.0 | 0.00 | 0.66 | 0.66 | 74 | 1008.2 |
| 20260509023751 | 22 | 268 | 0.0 | 0.0 | 0.00 | 0.66 | 0.66 | 74 | 1008.0 |
| 20260509023248 | 22 | 269 | 0.0 | 0.0 | 0.00 | 0.66 | 0.66 | 74 | 1008.1 |
| 20260509022744 | 22 | 275 | 0.0 | 0.0 | 0.00 | 0.66 | 0.66 | 73 | 1007.9 |
| 20260509022242 | 22 | 260 | 1.6 | 1.6 | 0.00 | 0.66 | 0.66 | 73 | 1007.4 |
| 20260509021739 | 22 | 252 | 0.0 | 0.0 | 0.00 | 0.66 | 0.66 | 73 | 1007.3 |
| 20260509021236 | 23 | 204 | 3.2 | 3.2 | 0.00 | 0.66 | 0.66 | 73 | 1007.0 |
| 20260509020734 | 23 | 190 | 3.2 | 4.8 | 0.00 | 0.66 | 0.66 | 72 | 1006.8 |
| 20260509020231 | 23 | 279 | 0.0 | 0.0 | 0.00 | 0.66 | 0.66 | 72 | 1006.9 |
| 20260509015729 | 23 | 213 | 0.0 | 0.0 | 0.00 | 0.66 | 0.66 | 71 | 1007.1 |
| 20260509015227 | 23 | 250 | 0.0 | 0.0 | 0.00 | 0.66 | 0.66 | 71 | 1007.0 |
| 20260509014723 | 23 | 228 | 1.6 | 1.6 | 0.00 | 0.66 | 0.66 | 71 | 1007.0 |
| 20260509014220 | 23 | 266 | 0.0 | 0.0 | 0.00 | 0.66 | 0.66 | 71 | 1006.8 |
| 20260509013717 | 23 | 215 | 3.2 | 3.2 | 0.00 | 0.66 | 0.66 | 70 | 1006.7 |
| 20260509013213 | 23 | 214 | 1.6 | 1.6 | 0.00 | 0.66 | 0.66 | 70 | 1006.7 |
| 20260509012709 | 23 | 236 | 1.6 | 1.6 | 0.00 | 0.66 | 0.66 | 69 | 1006.9 |
| 20260509012206 | 23 | 176 | 1.6 | 4.8 | 0.00 | 0.66 | 0.66 | 68 | 1006.8 |
| 20260509011704 | 23 | 185 | 3.2 | 3.2 | 0.00 | 0.66 | 0.66 | 67 | 1006.9 |
| 20260509011201 | 24 | 274 | 0.0 | 0.0 | 0.00 | 0.66 | 0.66 | 67 | 1006.9 |
| 20260509010659 | 24 | 255 | 1.6 | 3.2 | 0.00 | 0.66 | 0.66 | 67 | 1006.9 |
| 20260509010155 | 24 | 200 | 3.2 | 3.2 | 0.00 | 0.66 | 0.66 | 67 | 1006.8 |
| 20260509005653 | 24 | 198 | 1.6 | 3.2 | 0.00 | 0.66 | 0.66 | 66 | 1006.8 |
| 20260509005149 | 24 | 230 | 1.6 | 3.2 | 0.00 | 0.66 | 0.66 | 66 | 1006.8 |
| 20260509004644 | 25 | 232 | 0.0 | 1.6 | 0.00 | 0.66 | 0.66 | 66 | 1006.7 |
| 20260509004142 | 25 | 207 | 3.2 | 3.2 | 0.00 | 0.66 | 0.66 | 65 | 1006.6 |
| 20260509003640 | 25 | 178 | 3.2 | 3.2 | 0.00 | 0.66 | 0.66 | 65 | 1006.4 |
| 20260509003137 | 25 | 190 | 3.2 | 3.2 | 0.00 | 0.66 | 0.66 | 64 | 1006.4 |
| 20260509002635 | 25 | 219 | 4.8 | 4.8 | 0.00 | 0.66 | 0.66 | 63 | 1006.4 |
| 20260509002132 | 25 | 159 | 0.0 | 1.6 | 0.00 | 0.66 | 0.66 | 63 | 1006.4 |
| 20260509001630 | 25 | 182 | 0.0 | 0.0 | 0.00 | 0.66 | 0.66 | 63 | 1006.3 |
| 20260509001125 | 25 | 186 | 4.8 | 6.4 | 0.00 | 0.66 | 0.66 | 61 | 1006.4 |
| 20260509000624 | 25 | 257 | 3.2 | 3.2 | 0.00 | 0.66 | 0.66 | 62 | 1006.2 |
| 20260509000120 | 25 | 232 | 3.2 | 3.2 | 0.00 | 0.66 | 0.66 | 61 | 1006.4 |
| 20260508235617 | 25 | 201 | 1.6 | 3.2 | 0.00 | 0.66 | 0.66 | 62 | 1006.4 |
| 20260508235113 | 25 | 239 | 6.4 | 9.7 | 0.00 | 0.66 | 0.66 | 61 | 1006.5 |
| 20260508234611 | 26 | 196 | 9.7 | 12.9 | 0.00 | 0.66 | 0.66 | 60 | 1006.6 |
| 20260508234107 | 26 | 146 | 3.2 | 4.8 | 0.00 | 0.66 | 0.66 | 58 | 1006.5 |
| 20260508233607 | 27 | 254 | 1.6 | 3.2 | 0.00 | 0.66 | 0.66 | 58 | 1006.9 |
| 20260508233104 | 27 | 245 | 0.0 | 0.0 | 0.00 | 0.66 | 0.66 | 56 | 1006.6 |
| 20260508232601 | 27 | 13 | 3.2 | 3.2 | 0.00 | 0.66 | 0.66 | 56 | 1006.7 |
| 20260508232057 | 27 | 224 | 1.6 | 1.6 | 0.00 | 0.66 | 0.66 | 56 | 1006.7 |
| 20260508231555 | 28 | 173 | 4.8 | 6.4 | 0.00 | 0.66 | 0.66 | 54 | 1006.6 |
| 20260508231052 | 29 | 215 | 8.0 | 11.3 | 0.00 | 0.66 | 0.66 | 51 | 1006.8 |
| 20260508230548 | 28 | 177 | 3.2 | 4.8 | 0.00 | 0.66 | 0.66 | 51 | 1006.7 |
| 20260508230045 | 28 | 160 | 6.4 | 9.7 | 0.00 | 0.66 | 0.66 | 52 | 1006.6 |
| 20260508225543 | 29 | 180 | 6.4 | 9.7 | 0.00 | 0.66 | 0.66 | 51 | 1006.8 |
| 20260508225039 | 30 | 246 | 3.2 | 3.2 | 0.00 | 0.66 | 0.66 | 49 | 1006.6 |
| 20260508224537 | 29 | 283 | 1.6 | 3.2 | 0.00 | 0.66 | 0.66 | 50 | 1006.7 |
| 20260508224034 | 29 | 250 | 3.2 | 3.2 | 0.00 | 0.66 | 0.66 | 50 | 1006.6 |
| 20260508223532 | 29 | 256 | 3.2 | 6.4 | 0.00 | 0.66 | 0.66 | 51 | 1006.8 |
| 20260508223029 | 30 | 322 | 0.0 | 1.6 | 0.00 | 0.66 | 0.66 | 51 | 1007.0 |
| 20260508222527 | 29 | 270 | 1.6 | 1.6 | 0.00 | 0.66 | 0.66 | 51 | 1007.0 |
| 20260508222023 | 30 | 194 | 3.2 | 3.2 | 0.00 | 0.66 | 0.66 | 50 | 1006.9 |
| 20260508221519 | 28 | 190 | 1.6 | 1.6 | 0.00 | 0.66 | 0.66 | 52 | 1006.8 |
| 20260508221015 | 28 | 214 | 1.6 | 3.2 | 0.00 | 0.66 | 0.66 | 53 | 1006.9 |
| 20260508220512 | 29 | 229 | 8.0 | 9.7 | 0.00 | 0.66 | 0.66 | 51 | 1006.9 |
| 20260508220008 | 30 | 208 | 4.8 | 6.4 | 0.00 | 0.66 | 0.66 | 49 | 1006.7 |
| 20260508215505 | 30 | 291 | 1.6 | 1.6 | 0.00 | 0.66 | 0.66 | 50 | 1006.8 |
| 20260508215002 | 30 | 216 | 4.8 | 4.8 | 0.00 | 0.66 | 0.66 | 48 | 1006.7 |
| 20260508214500 | 30 | 161 | 8.0 | 9.7 | 0.00 | 0.66 | 0.66 | 47 | 1006.8 |
| 20260508213955 | 29 | 209 | 3.2 | 3.2 | 0.00 | 0.66 | 0.66 | 49 | 1007.0 |
| 20260508213453 | 28 | 199 | 3.2 | 4.8 | 0.00 | 0.66 | 0.66 | 50 | 1007.1 |
| 20260508212948 | 28 | 326 | 3.2 | 3.2 | 0.00 | 0.66 | 0.66 | 52 | 1006.8 |
| 20260508212445 | 30 | 191 | 3.2 | 3.2 | 0.00 | 0.66 | 0.66 | 49 | 1006.9 |
| 20260508211941 | 29 | 201 | 3.2 | 3.2 | 0.00 | 0.66 | 0.66 | 49 | 1007.0 |
| 20260508211437 | 28 | 245 | 3.2 | 4.8 | 0.00 | 0.66 | 0.66 | 50 | 1006.9 |
| 20260508210934 | 28 | 200 | 4.8 | 4.8 | 0.00 | 0.66 | 0.66 | 50 | 1006.9 |
| 20260508210431 | 28 | 191 | 3.2 | 4.8 | 0.00 | 0.66 | 0.66 | 51 | 1007.2 |
| 20260508205927 | 28 | 159 | 6.4 | 6.4 | 0.00 | 0.66 | 0.66 | 50 | 1007.5 |
| 20260508205425 | 27 | 292 | 3.2 | 4.8 | 0.00 | 0.66 | 0.66 | 53 | 1007.5 |
| 20260508204920 | 26 | 228 | 4.8 | 6.4 | 0.00 | 0.66 | 0.66 | 55 | 1007.8 |
| 20260508204418 | 26 | 192 | 4.8 | 11.3 | 0.00 | 0.66 | 0.66 | 58 | 1008.0 |
| 20260508203913 | 26 | 129 | 8.0 | 9.7 | 0.00 | 0.66 | 0.66 | 57 | 1008.3 |
| 20260508203410 | 26 | 201 | 1.6 | 3.2 | 0.00 | 0.66 | 0.66 | 56 | 1008.4 |
| 20260508202906 | 27 | 263 | 4.8 | 9.7 | 0.00 | 0.66 | 0.66 | 56 | 1008.7 |
| 20260508202403 | 27 | 294 | 6.4 | 11.3 | 0.00 | 0.66 | 0.66 | 55 | 1008.7 |
| 20260508201900 | 27 | 312 | 1.6 | 3.2 | 0.00 | 0.66 | 0.66 | 55 | 1008.5 |
| 20260508201357 | 27 | 240 | 3.2 | 4.8 | 0.00 | 0.66 | 0.66 | 54 | 1008.6 |
| 20260508200853 | 27 | 249 | 3.2 | 6.4 | 0.00 | 0.66 | 0.66 | 52 | 1008.8 |
| 20260508200350 | 27 | 308 | 1.6 | 1.6 | 0.00 | 0.66 | 0.66 | 54 | 1008.6 |
| 20260508195846 | 27 | 170 | 3.2 | 4.8 | 0.00 | 0.66 | 0.66 | 54 | 1008.6 |
| 20260508195343 | 27 | 191 | 3.2 | 4.8 | 0.00 | 0.66 | 0.66 | 54 | 1008.8 |
| 20260508194839 | 27 | 169 | 1.6 | 3.2 | 0.00 | 0.66 | 0.66 | 53 | 1008.9 |
| 20260508194336 | 28 | 80 | 3.2 | 3.2 | 0.00 | 0.66 | 0.66 | 50 | 1008.8 |
| 20260508193833 | 28 | 225 | 1.6 | 3.2 | 0.00 | 0.66 | 0.66 | 48 | 1008.9 |
| 20260508193330 | 29 | 158 | 1.6 | 3.2 | 0.00 | 0.66 | 0.66 | 47 | 1008.9 |
| 20260508192827 | 28 | 273 | 1.6 | 1.6 | 0.00 | 0.66 | 0.66 | 49 | 1008.8 |
| 20260508192323 | 28 | 316 | 3.2 | 4.8 | 0.00 | 0.66 | 0.66 | 48 | 1009.0 |
| 20260508191821 | 29 | 108 | 1.6 | 3.2 | 0.00 | 0.66 | 0.66 | 48 | 1008.9 |
| 20260508191318 | 30 | 161 | 3.2 | 3.2 | 0.00 | 0.66 | 0.66 | 47 | 1009.0 |
| 20260508190815 | 29 | 306 | 1.6 | 1.6 | 0.00 | 0.66 | 0.66 | 49 | 1008.9 |
| 20260508190311 | 28 | 106 | 6.4 | 9.7 | 0.00 | 0.66 | 0.66 | 48 | 1009.0 |
| 20260508185807 | 28 | 267 | 1.6 | 3.2 | 0.00 | 0.66 | 0.66 | 48 | 1009.2 |
| 20260508185306 | 28 | 161 | 3.2 | 6.4 | 0.00 | 0.66 | 0.66 | 49 | 1009.4 |
| 20260508184802 | 28 | 312 | 1.6 | 1.6 | 0.00 | 0.66 | 0.66 | 47 | 1009.1 |
| 20260508184259 | 28 | 293 | 3.2 | 3.2 | 0.00 | 0.66 | 0.66 | 50 | 1009.1 |
| 20260508183756 | 28 | 298 | 3.2 | 4.8 | 0.00 | 0.66 | 0.66 | 48 | 1009.3 |
| 20260508183252 | 28 | 266 | 3.2 | 4.8 | 0.00 | 0.66 | 0.66 | 49 | 1009.3 |
| 20260508182749 | 28 | 230 | 1.6 | 3.2 | 0.00 | 0.66 | 0.66 | 48 | 1009.7 |
| 20260508182245 | 28 | 172 | 4.8 | 6.4 | 0.00 | 0.66 | 0.66 | 48 | 1009.6 |
| 20260508181741 | 28 | 154 | 1.6 | 3.2 | 0.00 | 0.66 | 0.66 | 47 | 1009.9 |
| 20260508181238 | 27 | 285 | 3.2 | 4.8 | 0.00 | 0.66 | 0.66 | 49 | 1010.1 |
| 20260508180734 | 27 | 303 | 0.0 | 0.0 | 0.00 | 0.66 | 0.66 | 51 | 1010.2 |
| 20260508180232 | 27 | 233 | 1.6 | 1.6 | 0.00 | 0.66 | 0.66 | 49 | 1010.3 |
| 20260508175728 | 27 | 267 | 0.0 | 1.6 | 0.00 | 0.66 | 0.66 | 50 | 1010.2 |
| 20260508175225 | 27 | 182 | 1.6 | 1.6 | 0.00 | 0.66 | 0.66 | 49 | 1010.5 |
| 20260508174723 | 27 | 189 | 1.6 | 3.2 | 0.00 | 0.66 | 0.66 | 51 | 1010.3 |
| 20260508174220 | 26 | 262 | 1.6 | 3.2 | 0.00 | 0.66 | 0.66 | 52 | 1010.5 |
| 20260508173716 | 26 | 286 | 3.2 | 4.8 | 0.00 | 0.66 | 0.66 | 51 | 1010.6 |
| 20260508173212 | 26 | 232 | 3.2 | 3.2 | 0.00 | 0.66 | 0.66 | 51 | 1010.4 |
| 20260508172709 | 26 | 310 | 0.0 | 1.6 | 0.00 | 0.66 | 0.66 | 51 | 1010.7 |
| 20260508172206 | 26 | 190 | 3.2 | 4.8 | 0.00 | 0.66 | 0.66 | 52 | 1010.7 |
| 20260508171703 | 25 | 262 | 3.2 | 3.2 | 0.00 | 0.66 | 0.66 | 54 | 1010.8 |
| 20260508171159 | 25 | 234 | 1.6 | 1.6 | 0.00 | 0.66 | 0.66 | 54 | 1010.9 |
| 20260508170656 | 25 | 200 | 6.4 | 6.4 | 0.00 | 0.66 | 0.66 | 52 | 1011.0 |
| 20260508170154 | 24 | 8 | 4.8 | 6.4 | 0.00 | 0.66 | 0.66 | 54 | 1011.1 |
| 20260508165651 | 24 | 98 | 6.4 | 9.7 | 0.00 | 0.66 | 0.66 | 54 | 1011.3 |
| 20260508165148 | 25 | 199 | 3.2 | 6.4 | 0.00 | 0.66 | 0.66 | 54 | 1011.7 |
| 20260508164644 | 24 | 301 | 0.0 | 1.6 | 0.00 | 0.66 | 0.66 | 57 | 1011.6 |
| 20260508164141 | 23 | 52 | 1.6 | 3.2 | 0.00 | 0.66 | 0.66 | 60 | 1011.8 |
| 20260508163639 | 23 | 259 | 1.6 | 1.6 | 0.00 | 0.66 | 0.66 | 59 | 1011.6 |
| 20260508163136 | 23 | 196 | 4.8 | 9.7 | 0.00 | 0.66 | 0.66 | 59 | 1011.8 |
| 20260508162631 | 22 | 224 | 0.0 | 1.6 | 0.00 | 0.66 | 0.66 | 62 | 1011.8 |
| 20260508162129 | 22 | 206 | 1.6 | 3.2 | 0.00 | 0.66 | 0.66 | 62 | 1012.1 |
| 20260508161625 | 22 | 159 | 4.8 | 4.8 | 0.00 | 0.66 | 0.66 | 62 | 1012.1 |
| 20260508161123 | 21 | 163 | 6.4 | 9.7 | 0.00 | 0.66 | 0.66 | 63 | 1012.3 |
| 20260508160622 | 22 | 213 | 1.6 | 3.2 | 0.00 | 0.66 | 0.66 | 64 | 1012.3 |
| 20260508160119 | 22 | 240 | 3.2 | 3.2 | 0.00 | 0.66 | 0.66 | 63 | 1012.3 |
| 20260508155615 | 21 | 316 | 1.6 | 1.6 | 0.00 | 0.66 | 0.66 | 65 | 1012.3 |
| 20260508155112 | 21 | 188 | 1.6 | 1.6 | 0.00 | 0.66 | 0.66 | 67 | 1012.2 |
| 20260508154609 | 21 | 216 | 3.2 | 4.8 | 0.00 | 0.66 | 0.66 | 65 | 1012.4 |
| 20260508154106 | 21 | 182 | 3.2 | 3.2 | 0.00 | 0.66 | 0.66 | 67 | 1012.5 |
| 20260508153603 | 20 | 277 | 0.0 | 0.0 | 0.00 | 0.66 | 0.66 | 69 | 1012.3 |
| 20260508153059 | 20 | 228 | 1.6 | 1.6 | 0.00 | 0.66 | 0.66 | 68 | 1012.5 |
| 20260508152557 | 20 | 226 | 1.6 | 1.6 | 0.00 | 0.66 | 0.66 | 69 | 1012.6 |
| 20260508152051 | 20 | 242 | 3.2 | 3.2 | 0.00 | 0.66 | 0.66 | 68 | 1012.4 |
| 20260508151549 | 20 | 226 | 1.6 | 1.6 | 0.00 | 0.66 | 0.66 | 69 | 1012.9 |
| 20260508151046 | 20 | 286 | 0.0 | 1.6 | 0.00 | 0.66 | 0.66 | 71 | 1012.8 |
| 20260508150543 | 20 | 226 | 3.2 | 3.2 | 0.00 | 0.66 | 0.66 | 70 | 1012.7 |
| 20260508150038 | 21 | 199 | 1.6 | 3.2 | 0.00 | 0.66 | 0.66 | 70 | 1012.7 |
| 20260508145536 | 20 | 188 | 3.2 | 4.8 | 0.00 | 0.66 | 0.66 | 72 | 1012.6 |
| 20260508145032 | 20 | 185 | 3.2 | 3.2 | 0.00 | 0.66 | 0.66 | 73 | 1012.8 |
| 20260508144530 | 20 | 276 | 1.6 | 1.6 | 0.00 | 0.66 | 0.66 | 77 | 1012.7 |
| 20260508144027 | 19 | 217 | 3.2 | 4.8 | 0.00 | 0.66 | 0.66 | 78 | 1012.6 |
| 20260508143525 | 18 | 200 | 1.6 | 1.6 | 0.00 | 0.66 | 0.66 | 79 | 1012.9 |
| 20260508143020 | 18 | 178 | 1.6 | 1.6 | 0.00 | 0.66 | 0.66 | 78 | 1013.0 |
| 20260508142518 | 18 | 303 | 0.0 | 1.6 | 0.00 | 0.66 | 0.66 | 76 | 1013.0 |
| 20260508142014 | 19 | 207 | 1.6 | 1.6 | 0.00 | 0.66 | 0.66 | 76 | 1013.3 |
| 20260508141510 | 19 | 256 | 1.6 | 1.6 | 0.00 | 0.66 | 0.66 | 77 | 1013.0 |
| 20260508141008 | 19 | 314 | 1.6 | 1.6 | 0.00 | 0.66 | 0.66 | 79 | 1012.8 |
| 20260508140506 | 18 | 263 | 1.6 | 1.6 | 0.00 | 0.66 | 0.66 | 84 | 1013.0 |
| 20260508140001 | 18 | 263 | 0.0 | 1.6 | 0.00 | 0.66 | 0.66 | 84 | 1013.0 |
| 20260508135457 | 18 | 241 | 1.6 | 1.6 | 0.00 | 0.66 | 0.66 | 85 | 1013.0 |
| 20260508134954 | 17 | 279 | 0.0 | 0.0 | 0.00 | 0.66 | 0.66 | 86 | 1013.0 |
| 20260508134450 | 17 | 265 | 0.0 | 0.0 | 0.00 | 0.66 | 0.66 | 87 | 1013.1 |
| 20260508133947 | 17 | 293 | 0.0 | 0.0 | 0.00 | 0.66 | 0.66 | 88 | 1013.0 |
| 20260508133445 | 17 | 223 | 1.6 | 1.6 | 0.00 | 0.66 | 0.66 | 88 | 1012.9 |
| 20260508132941 | 17 | 259 | 1.6 | 3.2 | 0.00 | 0.66 | 0.66 | 90 | 1012.9 |
| 20260508132440 | 16 | 185 | 0.0 | 1.6 | 0.00 | 0.66 | 0.66 | 91 | 1013.0 |
| 20260508131936 | 16 | 231 | 3.2 | 3.2 | 0.00 | 0.66 | 0.66 | 91 | 1013.1 |
| 20260508131431 | 16 | 241 | 1.6 | 1.6 | 0.00 | 0.66 | 0.66 | 91 | 1012.9 |
| 20260508130928 | 16 | 224 | 1.6 | 1.6 | 0.00 | 0.66 | 0.66 | 91 | 1013.0 |
| 20260508130425 | 16 | 225 | 3.2 | 4.8 | 0.00 | 0.66 | 0.66 | 92 | 1013.0 |
| 20260508125921 | 16 | 252 | 1.6 | 1.6 | 0.00 | 0.66 | 0.66 | 94 | 1012.8 |
| 20260508125417 | 16 | 231 | 1.6 | 1.6 | 0.00 | 0.66 | 0.66 | 95 | 1012.8 |
| 20260508124915 | 16 | 231 | 1.6 | 1.6 | 0.00 | 0.66 | 0.66 | 95 | 1012.7 |
| 20260508124413 | 16 | 213 | 3.2 | 3.2 | 0.00 | 0.66 | 0.66 | 96 | 1012.8 |
| 20260508123910 | 16 | 254 | 0.0 | 1.6 | 0.00 | 0.66 | 0.66 | 96 | 1013.1 |
| 20260508123409 | 16 | 237 | 0.0 | 1.6 | 0.00 | 0.66 | 0.66 | 96 | 1012.7 |
| 20260508122904 | 15 | 321 | 0.0 | 0.0 | 0.00 | 0.66 | 0.66 | 96 | 1013.2 |
| 20260508122402 | 15 | 320 | 0.0 | 0.0 | 0.00 | 0.66 | 0.66 | 96 | 1013.9 |
| 20260508121859 | 15 | 299 | 0.0 | 0.0 | 0.00 | 0.66 | 0.66 | 96 | 1013.6 |
| 20260508121357 | 15 | 275 | 0.0 | 0.0 | 0.00 | 0.66 | 0.66 | 96 | 1013.2 |
| 20260508120855 | 15 | 231 | 0.0 | 1.6 | 0.00 | 0.66 | 0.66 | 96 | 1012.9 |
| 20260508120352 | 15 | 208 | 1.6 | 3.2 | 0.00 | 0.66 | 0.66 | 96 | 1013.2 |
| 20260508115849 | 15 | 266 | 0.0 | 0.0 | 0.00 | 0.66 | 0.66 | 96 | 1013.3 |
| 20260508115347 | 15 | 299 | 0.0 | 0.0 | 0.00 | 0.66 | 0.66 | 96 | 1013.4 |
| 20260508114843 | 15 | 297 | 0.0 | 0.0 | 0.00 | 0.66 | 0.66 | 95 | 1013.2 |
| 20260508114340 | 15 | 278 | 0.0 | 0.0 | 0.00 | 0.66 | 0.66 | 95 | 1013.1 |
| 20260508113837 | 15 | 274 | 0.0 | 0.0 | 0.00 | 0.66 | 0.66 | 95 | 1012.9 |
| 20260508113335 | 15 | 263 | 0.0 | 1.6 | 0.00 | 0.66 | 0.66 | 95 | 1013.1 |
| 20260508112831 | 15 | 309 | 0.0 | 0.0 | 0.13 | 0.66 | 0.66 | 95 | 1012.9 |
| 20260508112329 | 15 | 276 | 0.0 | 0.0 | 0.48 | 0.66 | 0.66 | 95 | 1012.9 |
| 20260508111825 | 15 | 262 | 0.0 | 0.0 | 0.48 | 0.64 | 0.64 | 95 | 1012.5 |
| 20260508111322 | 15 | 301 | 0.0 | 0.0 | 0.43 | 0.58 | 0.58 | 95 | 1012.9 |
| 20260508110819 | 15 | 214 | 0.0 | 0.0 | 0.43 | 0.58 | 0.58 | 95 | 1012.6 |
| 20260508110317 | 15 | 299 | 0.0 | 1.6 | 0.00 | 0.51 | 0.51 | 94 | 1012.3 |
| 20260508105816 | 15 | 208 | 1.6 | 3.2 | 0.18 | 0.51 | 0.51 | 94 | 1012.7 |
| 20260508105313 | 15 | 208 | 3.2 | 4.8 | 0.18 | 0.51 | 0.51 | 94 | 1012.4 |
| 20260508104810 | 15 | 178 | 3.2 | 4.8 | 0.00 | 0.48 | 0.48 | 94 | 1012.9 |
| 20260508104307 | 15 | 221 | 0.0 | 1.6 | 0.00 | 0.48 | 0.48 | 94 | 1013.3 |
| 20260508103805 | 15 | 252 | 0.0 | 1.6 | 0.13 | 0.48 | 0.48 | 94 | 1013.5 |
| 20260508103301 | 16 | 314 | 0.0 | 0.0 | 0.71 | 0.48 | 0.48 | 93 | 1013.3 |
| 20260508102759 | 16 | 318 | 0.0 | 1.6 | 2.46 | 0.46 | 0.46 | 92 | 1013.2 |
| 20260508102257 | 16 | 247 | 1.6 | 1.6 | 1.98 | 0.38 | 0.38 | 91 | 1012.6 |
| 20260508101754 | 16 | 175 | 3.2 | 3.2 | 0.48 | 0.08 | 0.08 | 87 | 1012.6 |
| 20260508101251 | 16 | 267 | 0.0 | 0.0 | 0.30 | 0.05 | 0.05 | 86 | 1012.8 |
| 20260508100749 | 16 | 320 | 0.0 | 0.0 | 0.00 | 0.00 | 0.00 | 84 | 1013.0 |
| 20260508100247 | 16 | 307 | 0.0 | 0.0 | 0.00 | 0.00 | 0.00 | 84 | 1012.6 |
| 20260508095742 | 16 | 297 | 0.0 | 0.0 | 0.00 | 0.00 | 0.00 | 84 | 1012.2 |
| 20260508095240 | 16 | 238 | 0.0 | 1.6 | 0.00 | 0.00 | 0.00 | 85 | 1012.2 |
| 20260508094737 | 16 | 232 | 1.6 | 1.6 | 0.00 | 0.00 | 0.00 | 85 | 1012.1 |
| 20260508094234 | 16 | 216 | 1.6 | 1.6 | 0.00 | 0.00 | 0.00 | 85 | 1012.0 |
| 20260508093731 | 16 | 229 | 0.0 | 0.0 | 0.00 | 0.00 | 0.00 | 85 | 1012.2 |
| 20260508093229 | 16 | 282 | 0.0 | 0.0 | 0.00 | 0.00 | 0.00 | 85 | 1012.1 |
| 20260508092725 | 16 | 276 | 0.0 | 0.0 | 0.00 | 0.00 | 0.00 | 85 | 1012.1 |
| 20260508092224 | 16 | 269 | 0.0 | 0.0 | 0.00 | 0.00 | 0.00 | 85 | 1012.2 |